Time;durP1;ratioP1;P1;durP2;ratioP2;P2;SDS_P1;SDS_P2;PMS_P1;PMS_P2;Temp;Humidity;BMP_temperature;BMP_pressure;BME280_temperature;BME280_humidity;BME280_pressure;Samples;Min_cycle;Max_cycle;Signal;HPM_P1;HPM_P2
2020/12/16 00:01:53;;;;;;;19.80;18.37;;;;;;;8.54;92.00;100540.75;5052595;28;20213;-74
2020/12/16 00:04:20;;;;;;;20.20;18.60;;;;;;;8.50;92.57;100537.81;5052585;28;20172;-75
2020/12/16 00:06:45;;;;;;;23.87;21.80;;;;;;;8.47;92.50;100549.28;5052518;28;20168;-74
2020/12/16 00:09:10;;;;;;;22.23;20.27;;;;;;;8.41;92.60;100536.88;5052622;28;20573;-75
2020/12/16 00:11:36;;;;;;;24.83;22.73;;;;;;;8.40;92.23;100546.13;5052386;28;20175;-74
2020/12/16 00:14:02;;;;;;;21.50;19.70;;;;;;;8.38;92.07;100552.97;5052387;28;20222;-74
2020/12/16 00:16:27;;;;;;;23.07;21.03;;;;;;;8.34;92.99;100548.09;5052166;28;20172;-74
2020/12/16 00:18:53;;;;;;;24.03;22.03;;;;;;;8.32;92.76;100552.19;5052534;28;20202;-74
2020/12/16 00:21:22;;;;;;;24.50;21.63;;;;;;;8.33;92.51;100559.25;5052200;28;20527;-75
2020/12/16 00:23:48;;;;;;;22.27;20.00;;;;;;;8.31;92.87;100556.03;5052107;28;20639;-75
2020/12/16 00:26:14;;;;;;;23.47;21.37;;;;;;;8.31;92.56;100554.13;5052078;28;20182;-74
2020/12/16 00:28:40;;;;;;;23.90;22.00;;;;;;;8.30;93.14;100555.22;5052058;28;20512;-74
2020/12/16 00:31:05;;;;;;;24.53;22.27;;;;;;;8.33;92.49;100559.25;5052267;28;20167;-75
2020/12/16 00:33:31;;;;;;;24.53;22.47;;;;;;;8.34;92.84;100559.00;5052030;28;20297;-74
2020/12/16 00:35:56;;;;;;;26.73;23.93;;;;;;;8.38;92.35;100561.13;5051977;28;20175;-74
2020/12/16 00:38:21;;;;;;;24.87;22.40;;;;;;;8.38;92.71;100556.50;5051726;28;20172;-75
2020/12/16 00:40:47;;;;;;;24.03;21.60;;;;;;;8.39;92.59;100563.59;5052024;28;20183;-74
2020/12/16 00:43:12;;;;;;;23.97;21.80;;;;;;;8.38;92.10;100556.50;5050839;28;20722;-74
2020/12/16 00:45:37;;;;;;;22.00;19.83;;;;;;;8.37;92.45;100552.16;5051817;28;20174;-74
2020/12/16 00:48:03;;;;;;;19.53;17.93;;;;;;;8.32;91.86;100554.91;5051425;28;20187;-74
2020/12/16 00:50:28;;;;;;;20.17;18.47;;;;;;;8.28;92.33;100545.72;5051769;28;20171;-74
2020/12/16 00:52:53;;;;;;;21.17;19.47;;;;;;;8.30;92.69;100549.78;5051498;28;20215;-74
2020/12/16 00:55:19;;;;;;;21.43;19.47;;;;;;;8.35;92.84;100557.09;5051589;28;20183;-74
2020/12/16 00:57:45;;;;;;;19.37;17.63;;;;;;;8.31;92.40;100561.47;5051207;28;20172;-74
2020/12/16 01:00:11;;;;;;;17.57;16.07;;;;;;;8.25;92.41;100566.19;5051535;28;20183;-74
2020/12/16 01:02:41;;;;;;;16.27;14.97;;;;;;;8.13;91.73;100565.00;5051470;28;20171;-74
2020/12/16 01:05:07;;;;;;;18.10;16.57;;;;;;;8.02;92.62;100576.00;5051471;28;20167;-74
2020/12/16 01:07:32;;;;;;;18.43;16.83;;;;;;;7.93;92.72;100572.28;5051288;28;20172;-75
2020/12/16 01:09:57;;;;;;;20.20;18.53;;;;;;;7.92;93.03;100580.75;5051359;28;20197;-74
2020/12/16 01:12:23;;;;;;;22.60;20.60;;;;;;;7.89;93.86;100575.88;5051073;28;20195;-74
2020/12/16 01:14:48;;;;;;;23.73;21.43;;;;;;;7.89;93.61;100576.69;5051188;28;20183;-74
2020/12/16 01:17:13;;;;;;;32.77;25.73;;;;;;;7.95;93.84;100577.44;5051157;28;20163;-74
2020/12/16 01:19:39;;;;;;;28.20;24.77;;;;;;;7.99;93.75;100586.66;5051195;28;20182;-74
2020/12/16 01:22:04;;;;;;;26.33;23.27;;;;;;;8.01;94.04;100581.72;5051226;28;20178;-74
2020/12/16 01:24:30;;;;;;;26.10;23.33;;;;;;;8.01;94.47;100590.69;5051135;28;20181;-75
2020/12/16 01:26:55;;;;;;;27.47;24.47;;;;;;;8.07;94.10;100592.25;5051041;28;20257;-74
2020/12/16 01:29:21;;;;;;;28.43;22.43;;;;;;;8.07;93.64;100594.97;5051100;28;20250;-74
2020/12/16 01:31:49;;;;;;;23.37;21.07;;;;;;;8.07;93.43;100597.69;5049702;28;20691;-74
2020/12/16 01:34:19;;;;;;;25.57;22.97;;;;;;;8.10;93.80;100604.47;5051108;28;20163;-76
2020/12/16 01:36:47;;;;;;;25.00;22.40;;;;;;;8.09;93.64;100600.13;5051217;28;20171;-74
2020/12/16 01:39:13;;;;;;;23.10;20.87;;;;;;;8.10;93.18;100598.19;5050827;28;20182;-74
2020/12/16 01:41:48;;;;;;;24.63;22.00;;;;;;;8.15;93.82;100595.44;5050861;28;20167;-74
2020/12/16 01:44:15;;;;;;;25.77;21.60;;;;;;;8.18;93.52;100601.09;5051150;28;20188;-74
2020/12/16 01:47:02;;;;;;;27.23;22.97;;;;;;;8.25;93.04;100600.75;5050447;28;20255;-75
2020/12/16 01:49:28;;;;;;;24.97;22.40;;;;;;;8.24;92.86;100602.66;5050846;28;20175;-75
2020/12/16 01:51:59;;;;;;;26.57;23.80;;;;;;;8.27;93.17;100602.09;5050334;28;20693;-75
2020/12/16 01:54:25;;;;;;;26.47;23.60;;;;;;;8.33;92.84;100610.97;5050800;28;20171;-74
2020/12/16 01:56:56;;;;;;;27.70;24.73;;;;;;;8.35;92.06;100609.63;5050490;28;20180;-75
2020/12/16 01:59:23;;;;;;;26.30;23.50;;;;;;;8.39;92.34;100604.41;5050797;28;20174;-74
2020/12/16 02:01:52;;;;;;;26.93;24.20;;;;;;;8.43;91.96;100604.63;5050603;28;20176;-74
2020/12/16 02:04:24;;;;;;;25.63;21.97;;;;;;;8.46;91.30;100595.88;5050589;28;20175;-74
2020/12/16 02:06:51;;;;;;;24.77;22.33;;;;;;;8.50;91.55;100596.91;5050653;28;20179;-74
2020/12/16 02:09:20;;;;;;;28.60;25.60;;;;;;;8.50;91.09;100605.88;5050441;28;20175;-74
2020/12/16 02:11:46;;;;;;;25.00;22.40;;;;;;;8.51;90.83;100612.13;5050318;28;20404;-74
2020/12/16 02:14:12;;;;;;;24.60;22.13;;;;;;;8.51;91.07;100601.22;5050731;28;20175;-75
2020/12/16 02:16:38;;;;;;;26.30;23.67;;;;;;;8.50;91.02;100602.34;5050445;28;20179;-75
2020/12/16 02:19:06;;;;;;;24.97;22.50;;;;;;;8.51;90.89;100599.31;5050461;28;20182;-75
2020/12/16 02:21:31;;;;;;;25.47;22.97;;;;;;;8.49;90.80;100600.72;5050284;28;20231;-74
2020/12/16 02:24:10;;;;;;;25.70;23.07;;;;;;;8.55;90.55;100596.84;5050099;28;20183;-76
2020/12/16 02:26:38;;;;;;;26.90;23.30;;;;;;;8.54;90.85;100597.94;5050255;28;20241;-75
2020/12/16 02:29:04;;;;;;;25.23;22.73;;;;;;;8.59;90.67;100606.84;5050311;28;20501;-75
2020/12/16 02:31:32;;;;;;;24.97;22.43;;;;;;;8.60;90.22;100605.75;5050194;28;20224;-74
2020/12/16 02:33:57;;;;;;;24.13;21.70;;;;;;;8.59;90.28;100620.47;5050242;28;20225;-75
2020/12/16 02:36:23;;;;;;;24.03;21.80;;;;;;;8.59;90.35;100622.38;5050146;28;20523;-74
2020/12/16 02:38:48;;;;;;;23.90;21.60;;;;;;;8.61;90.87;100620.16;5050320;28;20174;-75
2020/12/16 02:41:14;;;;;;;22.60;20.47;;;;;;;8.64;90.43;100616.84;5050120;28;20316;-74
2020/12/16 02:43:39;;;;;;;22.80;20.63;;;;;;;8.67;89.99;100616.25;5050342;28;20175;-74
2020/12/16 02:46:05;;;;;;;24.53;22.00;;;;;;;8.65;90.36;100618.47;5049994;28;20175;-74
2020/12/16 02:48:31;;;;;;;21.87;19.67;;;;;;;8.65;90.44;100622.00;5049986;28;20218;-74
2020/12/16 02:50:56;;;;;;;23.10;21.17;;;;;;;8.63;90.26;100616.03;5049851;28;20654;-75
2020/12/16 02:53:22;;;;;;;22.50;20.20;;;;;;;8.60;90.04;100621.28;5050054;28;20207;-74
2020/12/16 02:55:47;;;;;;;20.40;18.77;;;;;;;8.58;90.51;100634.38;5050120;28;20175;-75
2020/12/16 02:58:12;;;;;;;21.97;19.90;;;;;;;8.56;90.11;100629.22;5049700;28;20182;-74
2020/12/16 03:00:38;;;;;;;20.57;18.43;;;;;;;8.58;90.27;100626.22;5049841;28;20180;-75
2020/12/16 03:03:03;;;;;;;21.33;19.20;;;;;;;8.60;90.20;100621.28;5050001;28;20576;-74
2020/12/16 03:05:28;;;;;;;20.27;18.67;;;;;;;8.60;90.67;100627.53;5050046;28;20187;-74
2020/12/16 03:07:54;;;;;;;22.53;20.53;;;;;;;8.60;90.10;100624.81;5052829;28;20749;-75
2020/12/16 03:10:19;;;;;;;22.97;20.97;;;;;;;8.61;90.78;100628.34;5053504;28;20183;-75
2020/12/16 03:12:44;;;;;;;25.33;23.10;;;;;;;8.59;90.28;100625.09;5052002;28;20203;-75
2020/12/16 03:15:10;;;;;;;21.83;20.03;;;;;;;8.59;90.32;100622.38;5053344;28;20309;-75
2020/12/16 03:17:35;;;;;;;23.40;21.17;;;;;;;8.58;90.49;100620.75;5053044;28;20172;-74
2020/12/16 03:20:00;;;;;;;20.57;18.77;;;;;;;8.55;90.52;100627.59;5053255;28;20651;-74
2020/12/16 03:22:28;;;;;;;20.03;18.13;;;;;;;8.52;90.74;100627.34;5052967;28;20685;-74
2020/12/16 03:24:54;;;;;;;22.23;20.17;;;;;;;8.53;90.29;100626.25;5053283;28;20186;-75
2020/12/16 03:27:19;;;;;;;21.17;19.03;;;;;;;8.52;90.40;100632.81;5053396;28;20262;-74
2020/12/16 03:29:44;;;;;;;21.17;19.47;;;;;;;8.51;90.76;100628.47;5053066;28;20171;-74
2020/12/16 03:32:10;;;;;;;18.93;17.40;;;;;;;8.51;90.40;100625.75;5053255;28;20210;-74
2020/12/16 03:34:36;;;;;;;19.73;18.17;;;;;;;8.52;90.12;100627.34;5053322;28;20255;-76
2020/12/16 03:37:02;;;;;;;19.63;17.93;;;;;;;8.52;90.63;100635.53;5053177;28;20175;-77
2020/12/16 03:39:27;;;;;;;20.30;18.50;;;;;;;8.51;90.21;100632.00;5053383;28;20673;-75
2020/12/16 03:41:52;;;;;;;20.13;18.53;;;;;;;8.52;90.53;100641.78;5053387;28;20268;-74
2020/12/16 03:44:18;;;;;;;19.67;17.97;;;;;;;8.52;90.62;100646.41;5052861;28;20186;-74
2020/12/16 03:46:43;;;;;;;19.20;17.10;;;;;;;8.55;89.83;100654.03;5052698;28;20171;-77
2020/12/16 03:49:08;;;;;;;20.40;18.77;;;;;;;8.55;90.03;100649.38;5052845;28;20184;-77
2020/12/16 03:51:34;;;;;;;17.93;16.23;;;;;;;8.55;89.50;100649.38;5052543;28;20220;-76
2020/12/16 03:53:59;;;;;;;18.13;16.57;;;;;;;8.57;89.38;100647.19;5052656;28;20175;-77
2020/12/16 03:56:24;;;;;;;20.10;18.40;;;;;;;8.53;89.32;100646.13;5052539;28;20184;-77
2020/12/16 03:58:50;;;;;;;17.30;15.90;;;;;;;8.47;89.05;100641.88;5054004;28;20202;-77
2020/12/16 04:01:18;;;;;;;21.27;19.83;;;;;;;8.50;88.78;100645.91;5062279;28;20420;-77
2020/12/16 04:03:43;;;;;;;19.13;17.83;;;;;;;8.50;88.76;100648.63;5055001;28;20175;-77
2020/12/16 04:06:10;;;;;;;18.57;17.17;;;;;;;8.42;88.49;100649.31;5054126;28;20175;-74
2020/12/16 04:08:37;;;;;;;18.43;17.00;;;;;;;8.34;88.99;100645.28;5052978;28;20171;-74
2020/12/16 04:11:09;;;;;;;19.60;18.07;;;;;;;8.26;89.40;100648.66;5052711;28;20530;-77
2020/12/16 04:13:35;;;;;;;20.13;18.40;;;;;;;8.15;89.71;100658.03;5052386;28;20635;-77
2020/12/16 04:16:01;;;;;;;19.00;17.50;;;;;;;8.05;89.35;100656.22;5052689;28;20262;-77
2020/12/16 04:18:27;;;;;;;19.07;17.67;;;;;;;7.95;89.75;100664.47;5051153;28;20194;-76
2020/12/16 04:20:52;;;;;;;18.20;16.80;;;;;;;7.85;89.76;100670.84;5052309;28;20199;-77
2020/12/16 04:23:18;;;;;;;18.33;16.73;;;;;;;7.76;89.94;100669.84;5052301;28;20182;-76
2020/12/16 04:25:43;;;;;;;19.73;18.03;;;;;;;7.69;89.88;100666.69;5050920;28;20179;-77
2020/12/16 04:28:08;;;;;;;20.43;18.53;;;;;;;7.60;90.31;100666.47;5052109;28;20632;-77
2020/12/16 04:30:34;;;;;;;19.73;17.87;;;;;;;7.54;90.54;100673.06;5052082;28;20171;-74
2020/12/16 04:32:59;;;;;;;19.20;17.60;;;;;;;7.42;90.22;100678.88;5052255;28;20208;-74
2020/12/16 04:35:27;;;;;;;17.17;15.87;;;;;;;7.29;90.17;100676.78;5051992;28;20236;-76
2020/12/16 04:37:53;;;;;;;18.07;16.67;;;;;;;7.19;90.56;100679.56;5051672;28;20194;-74
2020/12/16 04:40:20;;;;;;;19.00;17.40;;;;;;;7.09;90.83;100672.34;5052009;28;20513;-74
2020/12/16 04:43:00;;;;;;;18.07;16.63;;;;;;;6.90;91.32;100673.25;5051475;28;20233;-76
2020/12/16 04:45:25;;;;;;;19.30;17.67;;;;;;;6.81;91.28;100673.06;5052177;28;20182;-76
2020/12/16 04:47:51;;;;;;;18.57;17.00;;;;;;;6.75;91.47;100668.72;5051615;28;20195;-77
2020/12/16 04:50:16;;;;;;;19.07;17.37;;;;;;;6.69;91.72;100686.16;5051720;28;20186;-74
2020/12/16 04:52:47;;;;;;;19.70;18.00;;;;;;;6.61;92.08;100681.28;5051614;28;20260;-74
2020/12/16 04:55:13;;;;;;;19.30;17.73;;;;;;;6.54;92.37;100695.19;5051572;28;20187;-77
2020/12/16 04:57:38;;;;;;;22.73;20.87;;;;;;;6.38;92.09;100694.44;5051314;28;20179;-75
2020/12/16 05:00:04;;;;;;;20.90;19.07;;;;;;;6.36;92.25;100701.19;5051602;28;20180;-74
2020/12/16 05:02:29;;;;;;;19.03;17.63;;;;;;;6.29;92.08;100706.94;5051515;28;20182;-74
2020/12/16 05:04:55;;;;;;;22.07;20.07;;;;;;;6.30;92.20;100703.13;5051528;28;20190;-74
2020/12/16 05:07:27;;;;;;;25.13;22.63;;;;;;;6.28;92.75;100699.88;5051351;28;20179;-74
2020/12/16 05:09:53;;;;;;;21.60;19.90;;;;;;;6.45;92.85;100702.25;5051237;28;20179;-74
2020/12/16 05:12:18;;;;;;;18.23;16.83;;;;;;;6.47;91.96;100710.94;5051489;28;20242;-74
2020/12/16 05:14:44;;;;;;;20.67;19.00;;;;;;;6.23;90.65;100700.72;5051180;28;20179;-74
2020/12/16 05:17:09;;;;;;;19.70;18.00;;;;;;;6.10;90.60;100709.44;5051187;28;20619;-74
2020/12/16 05:19:37;;;;;;;20.40;18.70;;;;;;;5.97;90.82;100710.00;5051154;28;20242;-74
2020/12/16 05:22:28;;;;;;;19.67;17.97;;;;;;;5.82;90.58;100699.97;5051598;28;20175;-77
2020/12/16 05:24:59;;;;;;;18.33;16.77;;;;;;;5.73;90.79;100701.59;5051076;28;20197;-74
2020/12/16 05:27:29;;;;;;;18.43;16.83;;;;;;;5.71;91.32;100706.47;5051317;28;20497;-75
2020/12/16 05:29:58;;;;;;;19.37;17.67;;;;;;;5.62;91.08;100708.09;5050696;28;20753;-74
2020/12/16 05:32:26;;;;;;;20.93;17.03;;;;;;;5.64;91.43;100701.34;5050731;28;20222;-77
2020/12/16 05:34:53;;;;;;;19.77;18.23;;;;;;;5.69;92.12;100700.53;5050746;28;20175;-75
2020/12/16 05:37:35;;;;;;;21.03;18.93;;;;;;;5.78;92.13;100700.75;5051032;28;20171;-74
2020/12/16 05:40:05;;;;;;;22.23;20.03;;;;;;;5.87;92.69;100710.78;5050875;28;20581;-74
2020/12/16 05:42:31;;;;;;;24.50;22.07;;;;;;;5.92;92.95;100716.22;5050909;28;20702;-73
2020/12/16 05:44:58;;;;;;;28.67;23.30;;;;;;;6.04;93.56;100723.25;5051229;28;20205;-77
2020/12/16 05:47:24;;;;;;;26.33;23.53;;;;;;;6.09;93.81;100715.13;5050444;28;20187;-75
2020/12/16 05:49:50;;;;;;;22.00;20.23;;;;;;;6.14;93.40;100721.34;5050778;28;20229;-74
2020/12/16 05:52:16;;;;;;;21.53;19.63;;;;;;;6.03;93.11;100725.16;5050823;28;20195;-75
2020/12/16 05:54:41;;;;;;;25.33;22.90;;;;;;;5.96;92.75;100724.66;5050650;28;20182;-74
2020/12/16 05:57:29;;;;;;;24.37;21.87;;;;;;;5.90;92.61;100726.53;5050198;28;20202;-74
2020/12/16 06:00:05;;;;;;;25.43;22.93;;;;;;;6.01;93.54;100723.81;5050475;28;20382;-74
2020/12/16 06:02:39;;;;;;;24.83;22.23;;;;;;;6.04;93.74;100723.25;5050487;28;20179;-77
2020/12/16 06:05:10;;;;;;;26.53;23.33;;;;;;;6.15;94.04;100714.03;5050623;28;20171;-76
2020/12/16 06:07:40;;;;;;;26.10;23.43;;;;;;;6.23;94.43;100705.34;5050502;28;20251;-75
2020/12/16 06:10:07;;;;;;;26.20;23.50;;;;;;;6.37;94.51;100711.00;5050471;28;20609;-74
2020/12/16 06:12:43;;;;;;;25.50;22.80;;;;;;;6.46;94.93;100698.47;5050460;28;20203;-74
2020/12/16 06:15:16;;;;;;;25.13;22.60;;;;;;;6.50;94.85;100703.03;5050854;28;20186;-74
2020/12/16 06:17:45;;;;;;;26.23;23.53;;;;;;;6.56;95.08;100707.38;5050315;28;20171;-76
2020/12/16 06:20:16;;;;;;;25.33;22.73;;;;;;;6.60;94.94;100698.66;5050534;28;20201;-74
2020/12/16 06:22:43;;;;;;;23.53;21.33;;;;;;;6.60;94.85;100704.91;5050255;28;20219;-76
2020/12/16 06:25:11;;;;;;;25.67;23.07;;;;;;;6.60;94.48;100702.19;5050522;28;20175;-76
2020/12/16 06:27:48;;;;;;;26.73;24.33;;;;;;;6.60;94.42;100712.25;5050805;28;20180;-77
2020/12/16 06:30:29;;;;;;;27.13;24.43;;;;;;;6.60;94.72;100709.53;5050324;28;20171;-77
2020/12/16 06:33:03;;;;;;;25.77;23.20;;;;;;;6.62;94.62;100715.50;5050646;28;20199;-77
2020/12/16 06:35:29;;;;;;;25.80;23.43;;;;;;;6.61;94.49;100711.97;5050130;28;20178;-77
2020/12/16 06:38:20;;;;;;;27.17;24.57;;;;;;;6.62;94.16;100710.88;5050194;28;20623;-77
2020/12/16 06:40:47;;;;;;;26.27;23.83;;;;;;;6.66;94.37;100713.88;5051319;28;20179;-76
2020/12/16 06:43:34;;;;;;;25.63;23.10;;;;;;;6.70;94.01;100717.63;5054195;28;20225;-77
2020/12/16 06:46:01;;;;;;;24.80;22.37;;;;;;;6.64;93.53;100721.44;5054085;28;20666;-77
2020/12/16 06:48:38;;;;;;;25.03;22.63;;;;;;;6.55;93.46;100718.50;5053894;28;20274;-76
2020/12/16 06:51:21;;;;;;;23.40;21.50;;;;;;;6.43;93.34;100724.25;5054210;28;20171;-77
2020/12/16 06:53:47;;;;;;;24.50;22.30;;;;;;;6.37;93.42;100728.09;5054072;28;20545;-77
2020/12/16 06:56:18;;;;;;;23.93;21.80;;;;;;;6.33;93.33;100732.41;5053781;28;20167;-77
2020/12/16 06:58:44;;;;;;;24.63;22.50;;;;;;;6.20;93.15;100731.09;5054028;28;20164;-76
2020/12/16 07:01:13;;;;;;;25.93;23.43;;;;;;;6.14;93.28;100725.97;5053849;28;20179;-77
2020/12/16 07:03:39;;;;;;;25.67;23.17;;;;;;;6.06;93.14;100729.22;5053937;28;20198;-76
2020/12/16 07:06:10;;;;;;;25.87;23.53;;;;;;;6.05;93.32;100728.41;5053792;28;20167;-77
2020/12/16 07:08:36;;;;;;;65.07;39.17;;;;;;;6.01;93.59;100726.53;5053750;28;20579;-77
2020/12/16 07:11:01;;;;;;;146.20;68.77;;;;;;;5.93;94.60;100727.88;5053862;28;20214;-77
2020/12/16 07:13:27;;;;;;;56.83;38.17;;;;;;;5.85;95.15;100731.13;5053860;28;20203;-81
2020/12/16 07:15:56;;;;;;;49.87;34.37;;;;;;;5.83;95.31;100734.13;5053643;28;20175;-79
2020/12/16 07:18:28;;;;;;;45.33;33.20;;;;;;;5.90;95.62;100748.22;5053367;28;20175;-76
2020/12/16 07:21:18;;;;;;;42.83;32.17;;;;;;;5.97;95.69;100751.50;5053444;28;20728;-76
2020/12/16 07:23:54;;;;;;;51.20;33.40;;;;;;;5.91;95.62;100749.84;5053334;28;20174;-75
2020/12/16 07:26:29;;;;;;;43.53;31.70;;;;;;;6.12;95.67;100749.84;5053215;28;20167;-75
2020/12/16 07:28:55;;;;;;;34.60;29.37;;;;;;;6.25;95.29;100752.00;5053628;28;20166;-77
2020/12/16 07:31:21;;;;;;;30.97;27.63;;;;;;;6.35;95.03;100751.94;5053121;28;20182;-76
2020/12/16 07:33:47;;;;;;;29.83;26.73;;;;;;;6.32;94.42;100755.22;5053147;28;20406;-77
2020/12/16 07:36:15;;;;;;;27.87;25.03;;;;;;;6.27;94.24;100744.38;5053097;28;20207;-76
2020/12/16 07:38:52;;;;;;;27.57;24.70;;;;;;;6.25;94.40;100754.69;5053299;28;20594;-76
2020/12/16 07:41:26;;;;;;;32.03;25.77;;;;;;;6.23;94.45;100760.41;5053048;28;20170;-76
2020/12/16 07:43:52;;;;;;;32.27;27.53;;;;;;;6.25;94.33;100760.13;5052885;28;20638;-77
2020/12/16 07:46:17;;;;;;;30.47;27.33;;;;;;;6.27;94.64;100763.38;5052840;28;20175;-76
2020/12/16 07:48:44;;;;;;;28.90;26.03;;;;;;;6.28;94.36;100770.44;5052750;28;20194;-77
2020/12/16 07:51:10;;;;;;;30.30;26.20;;;;;;;6.30;94.28;100765.53;5052517;28;20225;-77
2020/12/16 07:53:35;;;;;;;29.53;26.37;;;;;;;6.27;94.29;100768.81;5052626;28;20610;-76
2020/12/16 07:56:02;;;;;;;27.27;24.47;;;;;;;6.22;94.05;100766.09;5052814;28;20241;-77
2020/12/16 07:58:32;;;;;;;29.33;26.27;;;;;;;6.21;94.21;100769.88;5052806;28;20229;-77
2020/12/16 08:01:12;;;;;;;29.07;26.00;;;;;;;6.16;94.14;100772.63;5052670;28;20217;-76
2020/12/16 08:03:38;;;;;;;29.03;25.67;;;;;;;6.15;94.18;100768.28;5052641;28;20659;-77
2020/12/16 08:06:05;;;;;;;26.27;23.63;;;;;;;6.12;94.00;100782.41;5052565;28;20175;-77
2020/12/16 08:08:31;;;;;;;26.83;24.23;;;;;;;6.11;93.66;100783.47;5052321;28;20183;-77
2020/12/16 08:10:56;;;;;;;23.67;21.60;;;;;;;5.89;92.95;100789.16;5052167;28;20179;-77
2020/12/16 08:13:27;;;;;;;23.83;21.77;;;;;;;5.71;92.49;100789.69;5052243;28;20214;-76
2020/12/16 08:16:04;;;;;;;24.17;21.87;;;;;;;5.70;92.56;100797.00;5052339;28;20179;-76
2020/12/16 08:18:29;;;;;;;27.97;25.30;;;;;;;5.71;92.55;100790.50;5052077;28;20210;-76
2020/12/16 08:20:54;;;;;;;26.10;23.83;;;;;;;5.66;92.80;100791.34;5052259;28;20278;-77
2020/12/16 08:23:20;;;;;;;27.27;24.87;;;;;;;5.42;93.55;100787.50;5052050;28;20657;-76
2020/12/16 08:25:45;;;;;;;29.20;26.30;;;;;;;5.22;94.46;100791.00;5051942;28;20624;-76
2020/12/16 08:28:10;;;;;;;33.70;28.80;;;;;;;5.37;94.93;100795.63;5051685;28;20206;-74
2020/12/16 08:30:39;;;;;;;48.57;32.47;;;;;;;5.60;95.28;100799.72;5052079;28;20179;-76
2020/12/16 08:33:08;;;;;;;48.93;33.40;;;;;;;5.69;95.51;100789.97;5052229;28;20834;-74
2020/12/16 08:35:52;;;;;;;46.13;31.20;;;;;;;5.93;95.84;100784.84;5052153;28;20528;-75
2020/12/16 08:38:29;;;;;;;47.93;31.97;;;;;;;6.14;95.94;100780.22;5051854;28;20179;-77
2020/12/16 08:40:56;;;;;;;45.13;31.70;;;;;;;6.43;95.98;100775.00;5051991;28;20679;-76
2020/12/16 08:43:29;;;;;;;38.83;31.03;;;;;;;6.60;95.69;100772.78;5051866;28;20191;-76
2020/12/16 08:46:19;;;;;;;44.83;32.97;;;;;;;6.74;95.66;100768.38;5051849;28;20171;-76
2020/12/16 08:48:52;;;;;;;34.47;29.10;;;;;;;6.84;95.82;100771.06;5051620;28;20561;-76
2020/12/16 08:51:30;;;;;;;33.87;28.73;;;;;;;6.65;95.41;100774.66;5051751;28;20175;-77
2020/12/16 08:53:55;;;;;;;42.40;31.50;;;;;;;6.50;95.26;100772.81;5051585;28;20210;-78
2020/12/16 08:56:31;;;;;;;39.03;30.67;;;;;;;6.66;95.41;100770.88;5051149;28;20649;-78
2020/12/16 08:59:13;;;;;;;40.20;31.17;;;;;;;6.76;95.34;100770.81;5051340;28;20612;-77
2020/12/16 09:01:42;;;;;;;41.73;31.47;;;;;;;6.91;95.50;100767.22;5050793;28;20639;-73
2020/12/16 09:04:08;;;;;;;42.03;32.27;;;;;;;6.86;95.22;100770.78;5050737;28;20188;-78
2020/12/16 09:06:34;;;;;;;43.30;32.47;;;;;;;6.97;95.05;100769.66;5049949;28;20218;-79
2020/12/16 09:09:00;;;;;;;43.87;32.10;;;;;;;7.15;95.44;100774.44;5051297;28;20216;-77
2020/12/16 09:11:26;;;;;;;31.60;27.43;;;;;;;7.26;95.14;100782.53;5050857;28;20175;-76
2020/12/16 09:13:58;;;;;;;27.73;24.77;;;;;;;7.35;94.45;100784.38;5051162;28;20211;-73
2020/12/16 09:16:25;;;;;;;33.20;27.80;;;;;;;7.35;93.86;100784.38;5051041;28;20163;-76
2020/12/16 09:18:52;;;;;;;29.00;26.00;;;;;;;7.45;93.85;100792.47;5050970;28;20258;-78
2020/12/16 09:21:30;;;;;;;36.03;26.13;;;;;;;7.51;94.10;100793.22;5049906;28;20171;-78
2020/12/16 09:23:55;;;;;;;31.73;27.23;;;;;;;7.54;93.68;100797.31;5050707;28;20682;-77
2020/12/16 09:26:35;;;;;;;29.70;25.73;;;;;;;7.59;93.47;100792.63;5050691;28;20282;-77
2020/12/16 09:29:00;;;;;;;29.07;26.07;;;;;;;7.63;93.73;100801.84;5050747;28;20170;-77
2020/12/16 09:31:26;;;;;;;29.50;26.47;;;;;;;7.73;93.17;100795.53;5050579;28;20639;-78
2020/12/16 09:33:58;;;;;;;30.63;27.53;;;;;;;7.69;92.76;100798.00;5050599;28;20210;-78
2020/12/16 09:36:28;;;;;;;32.47;28.87;;;;;;;7.72;92.91;100793.91;5050795;28;20535;-78
2020/12/16 09:38:58;;;;;;;33.17;29.63;;;;;;;7.79;93.28;100799.81;5050555;28;20219;-75
2020/12/16 09:41:23;;;;;;;26.43;24.00;;;;;;;7.96;93.35;100800.25;5050787;28;20182;-78
2020/12/16 09:43:49;;;;;;;27.20;24.33;;;;;;;7.99;92.50;100799.69;5050558;28;20175;-77
2020/12/16 09:46:23;;;;;;;97.23;45.63;;;;;;;7.98;92.62;100794.53;5050336;28;20705;-78
2020/12/16 09:48:50;;;;;;;87.90;41.60;;;;;;;8.08;91.69;100791.69;5050335;28;20186;-78
2020/12/16 09:51:20;;;;;;;92.67;43.50;;;;;;;8.09;92.01;100793.31;5050681;28;20215;-77
2020/12/16 09:53:48;;;;;;;38.90;28.80;;;;;;;8.23;91.18;100788.00;5050441;28;20206;-74
2020/12/16 09:56:27;;;;;;;24.73;22.73;;;;;;;8.24;91.03;100790.44;5049901;28;20175;-75
2020/12/16 09:58:53;;;;;;;24.27;22.13;;;;;;;8.37;90.47;100789.00;5050402;28;20250;-78
2020/12/16 10:01:19;;;;;;;22.30;20.40;;;;;;;8.53;90.46;100790.44;5050844;28;20171;-77
2020/12/16 10:03:47;;;;;;;21.57;19.63;;;;;;;8.62;89.85;100787.91;5057149;28;20186;-78
2020/12/16 10:06:14;;;;;;;20.93;19.43;;;;;;;8.75;89.43;100786.41;5051287;28;20172;-77
2020/12/16 10:08:40;;;;;;;20.93;19.43;;;;;;;8.82;88.98;100790.38;5050247;28;20182;-78
2020/12/16 10:11:15;;;;;;;21.47;19.87;;;;;;;8.83;88.26;100786.59;5048926;28;20236;-78
2020/12/16 10:13:43;;;;;;;21.50;19.63;;;;;;;8.77;88.21;100797.81;5050126;28;20202;-78
2020/12/16 10:16:09;;;;;;;23.30;21.30;;;;;;;8.68;88.92;100800.41;5053259;28;20274;-78
2020/12/16 10:18:36;;;;;;;22.37;20.57;;;;;;;8.76;88.71;100799.72;5054256;28;20310;-75
2020/12/16 10:21:02;;;;;;;23.77;21.73;;;;;;;8.68;88.31;100794.94;5054202;28;20285;-75
2020/12/16 10:23:28;;;;;;;23.53;21.53;;;;;;;8.66;88.15;100794.41;5054471;28;20498;-75
2020/12/16 10:25:53;;;;;;;22.27;20.33;;;;;;;8.78;88.23;100800.25;5054094;28;20182;-75
2020/12/16 10:28:21;;;;;;;27.00;24.17;;;;;;;8.85;87.15;100795.28;5053992;28;20254;-75
2020/12/16 10:30:50;;;;;;;25.13;22.87;;;;;;;8.83;87.37;100797.50;5053866;28;20186;-75
2020/12/16 10:33:16;;;;;;;27.07;24.73;;;;;;;8.85;87.20;100791.75;5053991;28;20214;-76
2020/12/16 10:35:42;;;;;;;23.73;21.83;;;;;;;8.78;88.00;100797.53;5053918;28;20179;-75
2020/12/16 10:38:08;;;;;;;22.37;20.53;;;;;;;8.86;87.72;100796.91;5053673;28;20202;-75
2020/12/16 10:40:34;;;;;;;21.20;19.57;;;;;;;8.98;87.16;100793.75;5053887;28;20186;-75
2020/12/16 10:43:00;;;;;;;21.43;19.83;;;;;;;8.98;86.92;100784.78;5054257;28;20550;-75
2020/12/16 10:45:26;;;;;;;19.53;18.00;;;;;;;9.09;86.09;100784.31;5053722;28;20229;-75
2020/12/16 10:47:57;;;;;;;19.13;17.53;;;;;;;8.97;85.86;100780.41;5053469;28;20209;-75
2020/12/16 10:50:23;;;;;;;19.17;17.77;;;;;;;8.88;86.19;100783.78;5053663;28;20202;-78
2020/12/16 10:52:49;;;;;;;18.77;17.47;;;;;;;8.88;86.33;100782.97;5053599;28;20202;-75
2020/12/16 10:55:14;;;;;;;19.47;17.77;;;;;;;8.83;85.99;100786.59;5053615;28;20536;-75
2020/12/16 10:57:40;;;;;;;19.10;17.70;;;;;;;8.89;86.19;100784.59;5053426;28;20175;-74
2020/12/16 11:00:06;;;;;;;18.83;17.23;;;;;;;8.94;86.00;100789.97;5053509;28;20650;-75
2020/12/16 11:02:31;;;;;;;19.07;17.47;;;;;;;9.04;85.68;100780.88;5053492;28;20190;-74
2020/12/16 11:04:56;;;;;;;18.10;16.80;;;;;;;9.07;85.32;100781.09;5053659;28;20655;-78
2020/12/16 11:07:22;;;;;;;17.73;16.33;;;;;;;9.27;85.48;100774.56;5053265;28;20241;-77
2020/12/16 11:09:47;;;;;;;16.57;15.37;;;;;;;9.36;84.63;100774.69;5053272;28;20182;-75
2020/12/16 11:12:12;;;;;;;15.40;14.20;;;;;;;9.36;83.98;100780.97;5053441;28;20213;-78
2020/12/16 11:14:38;;;;;;;16.70;15.50;;;;;;;9.43;83.69;100773.25;5053380;28;20176;-77
2020/12/16 11:17:05;;;;;;;15.03;13.93;;;;;;;9.57;83.43;100775.22;5053083;28;20175;-75
2020/12/16 11:19:30;;;;;;;13.43;12.53;;;;;;;9.74;82.57;100779.03;5053139;28;20678;-77
2020/12/16 11:21:55;;;;;;;13.13;12.23;;;;;;;9.75;81.54;100775.19;5053099;28;20195;-77